Orbital elements of COSMOS 2251 DEB
| Launched | 15 June 1993 |
| Flight ended | – |
| Launch site | Plesetsk Missile and Space Complex, Russia |
| Owner | Commonwealth of Independent States (former USSR) |
| NORAD ID | 33908 |
| Date fetched |
Epoch osculation |
Inc. [°] |
Ecc. | RA asc node [hr] |
Arg Peri. [°] |
Mean anom [°] |
Mean motion [rev/day] |
Abs. mag |
| Date fetched |
Epoch osculation |
Inc. [°] |
Ecc. | RA asc node [hr] |
Arg Peri. [°] |
Mean anom [°] |
Mean motion [rev/day] |
Abs. mag |
| 2026 May 05 17:57 | 2026 May 04 23:01:38 | 73.8374 | 0.02161 | 20.7567 | 309.8444 | 48.3849 | 14.08585 | – |
| 2026 May 04 17:57 | 2026 Apr 30 15:03:13 | 73.8378 | 0.02163 | 21.2703 | 318.3673 | 48.3849 | 14.08585 | – |
| 2026 May 03 17:57 | 2026 Apr 30 15:03:13 | 73.8378 | 0.02163 | 21.2703 | 318.3673 | 48.3849 | 14.08585 | – |
| 2026 May 02 17:57 | 2026 Apr 30 15:03:13 | 73.8378 | 0.02163 | 21.2703 | 318.3673 | 48.3849 | 14.08585 | – |
| 2026 May 01 17:56 | 2026 Apr 30 15:03:13 | 73.8378 | 0.02163 | 21.2703 | 318.3673 | 48.3849 | 14.08585 | – |
| 2026 Apr 30 17:56 | 2026 Apr 30 15:03:13 | 73.8378 | 0.02163 | 21.2703 | 318.3673 | 48.3849 | 14.08585 | – |
| 2026 Apr 29 17:57 | 2026 Apr 24 07:21:08 | 73.8397 | 0.02168 | 22.0195 | 330.7001 | 48.3849 | 14.08585 | – |
| 2026 Apr 28 17:56 | 2026 Apr 24 07:21:08 | 73.8397 | 0.02168 | 22.0195 | 330.7001 | 48.3849 | 14.08585 | – |
| 2026 Apr 27 17:58 | 2026 Apr 24 07:21:08 | 73.8397 | 0.02168 | 22.0195 | 330.7001 | 48.3849 | 14.08585 | – |
| 2026 Apr 26 17:58 | 2026 Apr 24 07:21:08 | 73.8397 | 0.02168 | 22.0195 | 330.7001 | 48.3849 | 14.08585 | – |
| 2026 Apr 25 17:58 | 2026 Apr 24 07:21:08 | 73.8397 | 0.02168 | 22.0195 | 330.7001 | 48.3849 | 14.08585 | – |
| 2026 Apr 24 17:59 | 2026 Apr 24 07:21:08 | 73.8397 | 0.02168 | 22.0195 | 330.7001 | 48.3849 | 14.08585 | – |
| 2026 Apr 23 17:57 | 2026 Apr 19 08:02:07 | 73.8401 | 0.02173 | 22.6088 | 340.3111 | 48.3849 | 14.08585 | – |
| 2026 Apr 22 17:57 | 2026 Apr 19 08:02:07 | 73.8401 | 0.02173 | 22.6088 | 340.3111 | 48.3849 | 14.08585 | – |
| 2026 Apr 21 17:57 | 2026 Apr 19 08:02:07 | 73.8401 | 0.02173 | 22.6088 | 340.3111 | 48.3849 | 14.08585 | – |
| 2026 Apr 20 17:57 | 2026 Apr 19 08:02:07 | 73.8401 | 0.02173 | 22.6088 | 340.3111 | 48.3849 | 14.08585 | – |
| 2026 Apr 19 17:58 | 2026 Apr 19 08:02:07 | 73.8401 | 0.02173 | 22.6088 | 340.3111 | 48.3849 | 14.08585 | – |
| 2026 Apr 18 17:56 | 2026 Apr 13 02:02:05 | 73.8414 | 0.02178 | 23.3494 | 352.3184 | 48.3849 | 14.08585 | – |
| 2026 Apr 16 17:57 | 2026 Apr 13 02:02:05 | 73.8414 | 0.02178 | 23.3494 | 352.3184 | 48.3849 | 14.08585 | – |
| 2026 Apr 14 17:57 | 2026 Apr 13 02:02:05 | 73.8414 | 0.02178 | 23.3494 | 352.3184 | 48.3849 | 14.08585 | – |
| 2026 Apr 13 17:57 | 2026 Apr 13 02:02:05 | 73.8414 | 0.02178 | 23.3494 | 352.3184 | 48.3849 | 14.08585 | – |
| 2026 Apr 12 17:57 | 2026 Apr 08 02:42:49 | 73.8401 | 0.02179 | 23.9386 | 1.8823 | 48.3849 | 14.08585 | – |
| 2026 Apr 11 17:57 | 2026 Apr 08 02:42:49 | 73.8401 | 0.02179 | 23.9386 | 1.8823 | 48.3849 | 14.08585 | – |
| 2026 Apr 10 17:58 | 2026 Apr 08 02:42:49 | 73.8401 | 0.02179 | 23.9386 | 1.8823 | 48.3849 | 14.08585 | – |
| 2026 Apr 09 18:01 | 2026 Apr 08 02:42:49 | 73.8401 | 0.02179 | 23.9386 | 1.8823 | 48.3849 | 14.08585 | – |
| 2026 Apr 08 17:57 | 2026 Apr 08 02:42:49 | 73.8401 | 0.02179 | 23.9386 | 1.8823 | 48.3849 | 14.08585 | – |